Tenacia — ICGA — position and weather

sailwx.info

Track history (hours):
 
Tides and Currents Weather Stations Pressure Air Temp Water Temp Dewpoint Dewpoint Depression Visibility Wind Speed Wind Dir Waves Ship Positions

Tenacia

Last reported at 2018-Apr-23 17:27 UTC. Time now 2018-Apr-23 21:26 UTC.
Position N 41°22' E 002°11'.

Length 199 m; draft 6 m.

Type: Ship. MMSI: 247230200.

Date/timePositionNaut miles runAvg speedWind from/ knotsBaromVisibWave heightAir tempDewpointWater temp
2018-Apr-23 17:27N 41°22' E 002°11'2 4.7
2018-Apr-23 17:00N 41°20' E 002°12'815.4
2018-Apr-23 16:30N 41°13' E 002°14'919.0
2018-Apr-23 16:00N 41°03' E 002°15'918.8
2018-Apr-23 15:30N 40°54' E 002°16'1019.8
2018-Apr-23 15:00N 40°44' E 002°16'1019.9
2018-Apr-23 14:29N 40°34' E 002°15'6519.0
2018-Apr-23 11:05N 39°29' E 002°24'118.9
2018-Apr-23 11:00N 39°29' E 002°25'815.1
2018-Apr-23 10:30N 39°29' E 002°35'5 8.5
2018-Apr-23 09:58N 39°33' E 002°38'0 0.0
2018-Apr-23 09:28N 39°33' E 002°38'0 0.0
2018-Apr-23 08:58N 39°33' E 002°38'0 0.0
2018-Apr-23 08:28N 39°33' E 002°38'0 0.0
2018-Apr-23 07:57N 39°33' E 002°38'0 0.0
2018-Apr-23 07:30N 39°33' E 002°38'0 0.0
2018-Apr-23 07:00N 39°33' E 002°38'0 0.0
2018-Apr-23 06:30N 39°33' E 002°38'0 0.0
2018-Apr-23 06:00N 39°33' E 002°38'0 0.0
2018-Apr-23 05:26N 39°33' E 002°38'0 0.0
2018-Apr-23 04:59N 39°33' E 002°38'0 0.6
2018-Apr-23 04:30N 39°33' E 002°38'612.3
2018-Apr-23 03:59N 39°28' E 002°34'9216.6
2018-Apr-22 22:28N 40°58' E 002°14'919.3
2018-Apr-22 22:00N 41°07' E 002°13'918.8
2018-Apr-22 21:30N 41°17' E 002°13'6 0.4
2018-Apr-22 05:12N 41°22' E 002°11'1 7.3
2018-Apr-22 05:00N 41°21' E 002°12'815.4
2018-Apr-22 04:30N 41°13' E 002°14'1318.6
2018-Apr-22 03:48N 41°00' E 002°15'9218.2
2018-Apr-21 22:44N 39°28' E 002°25'415.4
2018-Apr-21 22:30N 39°27' E 002°29'713.6
2018-Apr-21 22:01N 39°30' E 002°36'3 5.6
2018-Apr-21 21:29N 39°33' E 002°38'0 0.0
2018-Apr-21 20:59N 39°33' E 002°38'0 0.0
2018-Apr-21 20:29N 39°33' E 002°38'0 0.0
2018-Apr-21 19:58N 39°33' E 002°38'0 0.0
2018-Apr-21 19:28N 39°33' E 002°38'0 0.0
2018-Apr-21 18:58N 39°33' E 002°38'0 0.0
2018-Apr-21 18:28N 39°33' E 002°38'0 0.0
2018-Apr-21 18:01N 39°33' E 002°38'0 0.0
2018-Apr-21 17:30N 39°33' E 002°38'0 0.0
2018-Apr-21 17:00N 39°33' E 002°38'0 0.0
2018-Apr-21 16:30N 39°33' E 002°38'0 0.0
2018-Apr-21 16:00N 39°33' E 002°38'0 0.0
2018-Apr-21 15:29N 39°33' E 002°38'0 0.0
2018-Apr-21 14:56N 39°33' E 002°38'0 0.0
2018-Apr-21 14:29N 39°33' E 002°38'0 0.0
2018-Apr-21 13:59N 39°33' E 002°38'0 0.0
2018-Apr-21 13:29N 39°33' E 002°38'0 0.0
2018-Apr-21 12:58N 39°33' E 002°38'0 0.0
2018-Apr-21 12:28N 39°33' E 002°38'0 0.0
2018-Apr-21 11:58N 39°33' E 002°38'0 0.0
2018-Apr-21 11:28N 39°33' E 002°38'0 0.0
2018-Apr-21 11:00N 39°33' E 002°38'0 0.0
2018-Apr-21 10:30N 39°33' E 002°38'0 0.0
2018-Apr-21 10:00N 39°33' E 002°38'0 0.0
2018-Apr-21 09:30N 39°33' E 002°38'0 0.0
2018-Apr-21 09:00N 39°33' E 002°38'0 0.0
2018-Apr-21 08:29N 39°33' E 002°38'0 0.0
2018-Apr-21 07:59N 39°33' E 002°38'0 0.0
2018-Apr-21 07:29N 39°33' E 002°38'0 0.0
2018-Apr-21 06:59N 39°33' E 002°38'0 0.0
2018-Apr-21 06:29N 39°33' E 002°38'0 0.0
2018-Apr-21 05:58N 39°33' E 002°38'0 0.0
2018-Apr-21 05:28N 39°33' E 002°38'0 0.0
2018-Apr-21 04:58N 39°33' E 002°38'0 0.5
2018-Apr-21 04:30N 39°33' E 002°38'713.6
2018-Apr-21 04:00N 39°27' E 002°33'10017.4
2018-Apr-20 22:17N 41°06' E 002°13'518.9
2018-Apr-20 22:00N 41°11' E 002°13'1019.0
2018-Apr-20 21:30N 41°20' E 002°12'2 0.4
2018-Apr-20 17:15N 41°22' E 002°11'2 6.6
2018-Apr-20 17:00N 41°21' E 002°12'612.9
2018-Apr-20 16:30N 41°14' E 002°14'918.1
2018-Apr-20 15:59N 41°05' E 002°15'9719.2
2018-Apr-20 10:57N 39°28' E 002°25'715.4
2018-Apr-20 10:30N 39°28' E 002°34'610.5
2018-Apr-20 09:58N 39°33' E 002°38'0 0.0
2018-Apr-20 09:28N 39°33' E 002°38'0 0.0
2018-Apr-20 08:58N 39°33' E 002°38'0 0.0
2018-Apr-20 08:28N 39°33' E 002°38'0 0.0
2018-Apr-20 07:58N 39°33' E 002°38'0 0.0
2018-Apr-20 07:30N 39°33' E 002°38'0 0.0
2018-Apr-20 07:00N 39°33' E 002°38'0 0.0
2018-Apr-20 06:27N 39°33' E 002°38'0 0.0
2018-Apr-20 06:00N 39°33' E 002°38'0 0.0
2018-Apr-20 05:30N 39°33' E 002°38'0 0.0
2018-Apr-20 04:59N 39°33' E 002°38'0 0.8
2018-Apr-20 04:30N 39°33' E 002°38'814.6
2018-Apr-20 03:58N 39°26' E 002°33'815.8
2018-Apr-20 03:30N 39°28' E 002°23'9918.5
2018-Apr-19 22:10N 41°06' E 002°14'319.2
2018-Apr-19 22:00N 41°09' E 002°14'918.9
2018-Apr-19 21:30N 41°19' E 002°13'4 0.9
2018-Apr-19 17:08N 41°22' E 002°11'1 8.2
2018-Apr-19 17:00N 41°21' E 002°11'815.6
2018-Apr-19 16:31N 41°13' E 002°14'1018.6
2018-Apr-19 15:59N 41°04' E 002°14'919.0
2018-Apr-19 15:30N 40°55' E 002°15'8719.1
2018-Apr-19 10:58N 39°28' E 002°25'715.5
2018-Apr-19 10:30N 39°29' E 002°35'5 9.7
2018-Apr-19 10:00N 39°33' E 002°38'0 0.0
2018-Apr-19 09:28N 39°33' E 002°38'0 0.0
2018-Apr-19 08:58N 39°33' E 002°38'0 0.0
2018-Apr-19 08:31N 39°33' E 002°38'0 0.0
2018-Apr-19 08:00N 39°33' E 002°38'0 0.0
2018-Apr-19 07:30N 39°33' E 002°38'0 0.0
2018-Apr-19 07:00N 39°33' E 002°38'0 0.0
2018-Apr-19 06:30N 39°33' E 002°38'0 0.0
2018-Apr-19 05:59N 39°33' E 002°38'0 0.0
2018-Apr-19 05:29N 39°33' E 002°38'0 0.0
2018-Apr-19 04:59N 39°33' E 002°38'0 0.6
2018-Apr-19 04:30N 39°33' E 002°38'813.9
2018-Apr-19 03:56N 39°26' E 002°32'817.2
2018-Apr-19 03:29N 39°29' E 002°23'9418.6
2018-Apr-18 22:26N 41°02' E 002°13'819.0
2018-Apr-18 22:01N 41°10' E 002°13'1019.3
2018-Apr-18 21:31N 41°20' E 002°12'2 0.6
2018-Apr-18 17:17N 41°22' E 002°11'2 7.4
2018-Apr-18 17:01N 41°20' E 002°12'714.2
2018-Apr-18 16:31N 41°14' E 002°14'1020.0
2018-Apr-18 16:01N 41°04' E 002°14'9519.9
2018-Apr-18 11:15N 39°29' E 002°23'518.3
2018-Apr-18 10:59N 39°26' E 002°28'918.8
2018-Apr-18 10:30N 39°32' E 002°38'1 2.8
2018-Apr-18 10:00N 39°33' E 002°38'0 0.0
2018-Apr-18 09:30N 39°33' E 002°38'0 0.0
2018-Apr-18 09:00N 39°33' E 002°38'0 0.0
2018-Apr-18 08:30N 39°33' E 002°38'0 0.0
2018-Apr-18 08:00N 39°33' E 002°38'0 0.0
2018-Apr-18 07:29N 39°33' E 002°38'0 0.0
2018-Apr-18 06:59N 39°33' E 002°38'0 0.0
2018-Apr-18 06:29N 39°33' E 002°38'0 0.0
2018-Apr-18 05:59N 39°33' E 002°38'0 0.0
2018-Apr-18 05:28N 39°33' E 002°38'0 0.0
2018-Apr-18 04:53N 39°33' E 002°38'0 1.2
2018-Apr-18 04:30N 39°33' E 002°38'714.0
2018-Apr-18 04:00N 39°27' E 002°33'8917.0
2018-Apr-17 22:47N 40°55' E 002°14'718.6
2018-Apr-17 22:24N 41°02' E 002°14'719.1
2018-Apr-17 22:00N 41°10' E 002°14'1019.9
2018-Apr-17 21:31N 41°20' E 002°13'11110.6
2018-Apr-17 11:05N 39°29' E 002°24'118.7
2018-Apr-17 11:00N 39°28' E 002°25'815.4
2018-Apr-17 10:30N 39°29' E 002°35'4 8.6
2018-Apr-17 10:00N 39°33' E 002°38'0 0.0
2018-Apr-17 09:30N 39°33' E 002°38'0 0.0
2018-Apr-17 09:00N 39°33' E 002°38'0 0.0
2018-Apr-17 08:29N 39°33' E 002°38'0 0.0
2018-Apr-17 07:59N 39°33' E 002°38'0 0.0
2018-Apr-17 07:29N 39°33' E 002°38'0 0.0
2018-Apr-17 06:59N 39°33' E 002°38'0 0.0
2018-Apr-17 06:29N 39°33' E 002°38'0 0.0
2018-Apr-17 05:58N 39°33' E 002°38'0 0.0
2018-Apr-17 05:28N 39°33' E 002°38'0 0.0
2018-Apr-17 04:58N 39°33' E 002°38'1 1.9
2018-Apr-17 04:30N 39°33' E 002°39'815.1
2018-Apr-17 04:00N 39°27' E 002°33'10117.4
2018-Apr-16 22:13N 41°06' E 002°13'419.3
2018-Apr-16 22:00N 41°11' E 002°13'1019.7
2018-Apr-16 21:30N 41°20' E 002°12'2 0.5
2018-Apr-16 17:15N 41°22' E 002°11'2 8.6
2018-Apr-16 17:00N 41°20' E 002°13'1019.2
2018-Apr-16 16:30N 41°11' E 002°14'10318.8
2018-Apr-16 11:03N 39°29' E 002°25'117.7
2018-Apr-16 11:00N 39°28' E 002°26'714.4
2018-Apr-16 10:30N 39°29' E 002°35'4 8.9
2018-Apr-16 10:00N 39°33' E 002°38'0 0.0
2018-Apr-16 09:30N 39°33' E 002°38'0 0.0
2018-Apr-16 09:00N 39°33' E 002°38'0 0.0
2018-Apr-16 08:30N 39°33' E 002°38'0 0.0
2018-Apr-16 07:59N 39°33' E 002°38'0 0.0
2018-Apr-16 07:29N 39°33' E 002°38'0 0.0
2018-Apr-16 06:59N 39°33' E 002°38'0 0.0
2018-Apr-16 06:29N 39°33' E 002°38'0 0.0
2018-Apr-16 05:59N 39°33' E 002°38'0 0.0
2018-Apr-16 05:28N 39°33' E 002°38'0 0.0
2018-Apr-16 04:58N 39°33' E 002°38'0 0.7
2018-Apr-16 04:29N 39°33' E 002°38'714.8
2018-Apr-16 04:00N 39°27' E 002°34'10017.1
2018-Apr-15 22:10N 41°06' E 002°13'318.8
2018-Apr-15 22:00N 41°09' E 002°13'919.1
2018-Apr-15 21:30N 41°18' E 002°13'109 4.8
2018-Apr-14 22:54N 39°29' E 002°23'717.1
2018-Apr-14 22:30N 39°26' E 002°31'713.7
2018-Apr-14 22:00N 39°31' E 002°37'2 3.5
2018-Apr-14 21:30N 39°33' E 002°38'0 0.0
2018-Apr-14 21:00N 39°33' E 002°38'0 0.0
2018-Apr-14 20:30N 39°33' E 002°38'0 0.0
2018-Apr-14 19:59N 39°33' E 002°38'0 0.0
2018-Apr-14 19:29N 39°33' E 002°38'0 0.0
2018-Apr-14 18:59N 39°33' E 002°38'0 0.0
2018-Apr-14 18:29N 39°33' E 002°38'0 0.0
2018-Apr-14 17:58N 39°33' E 002°38'0 0.0
2018-Apr-14 17:28N 39°33' E 002°38'0 0.0
2018-Apr-14 16:58N 39°33' E 002°38'0 0.0
2018-Apr-14 16:28N 39°33' E 002°38'0 0.0
2018-Apr-14 15:58N 39°33' E 002°38'0 0.0
2018-Apr-14 15:30N 39°33' E 002°38'0 0.0
2018-Apr-14 15:00N 39°33' E 002°38'0 0.0
2018-Apr-14 14:30N 39°33' E 002°38'0 0.0
2018-Apr-14 14:00N 39°33' E 002°38'0 0.0
2018-Apr-14 13:30N 39°33' E 002°38'0 0.0
2018-Apr-14 12:59N 39°33' E 002°38'0 0.0
2018-Apr-14 12:29N 39°33' E 002°38'0 0.0
2018-Apr-14 11:59N 39°33' E 002°38'0 0.0
2018-Apr-14 11:29N 39°33' E 002°38'0 0.0
2018-Apr-14 10:58N 39°33' E 002°38'0 0.0
2018-Apr-14 10:28N 39°33' E 002°38'0 0.0
2018-Apr-14 09:58N 39°33' E 002°38'0 0.0
2018-Apr-14 09:28N 39°33' E 002°38'0 0.0
2018-Apr-14 08:58N 39°33' E 002°38'0 0.0
2018-Apr-14 08:30N 39°33' E 002°38'0 0.0
2018-Apr-14 08:00N 39°33' E 002°38'0 0.0
2018-Apr-14 07:30N 39°33' E 002°38'0 0.1
2018-Apr-14 07:00N 39°33' E 002°38'0 0.0
2018-Apr-14 06:30N 39°33' E 002°38'0 0.1
2018-Apr-14 05:59N 39°33' E 002°38'0 0.0
2018-Apr-14 05:28N 39°33' E 002°38'0 0.0
2018-Apr-14 04:59N 39°33' E 002°38'1 1.1
2018-Apr-14 04:30N 39°33' E 002°38'816.0
2018-Apr-14 04:00N 39°27' E 002°32'10016.9
2018-Apr-13 22:06N 41°06' E 002°13'218.8
2018-Apr-13 22:00N 41°08' E 002°13'918.9
2018-Apr-13 21:31N 41°17' E 002°13'  
Track history (hours):
 
Tides and Currents Weather Stations Pressure Air Temp Water Temp Dewpoint Dewpoint Depression Visibility Wind Speed Wind Dir Waves Ship Positions

Tenacia

Last reported at 2018-Apr-23 17:27 UTC. Time now 2018-Apr-23 21:26 UTC.
Position N 41°22' E 002°11'.

Length 199 m; draft 6 m.

Type: Ship. MMSI: 247230200.

Date/timePositionNaut miles runAvg speedWind from/ knotsBaromVisibWave heightAir tempDewpointWater temp
2018-Apr-23 17:27N 41°22' E 002°11'2 4.7
2018-Apr-23 17:00N 41°20' E 002°12'815.4
2018-Apr-23 16:30N 41°13' E 002°14'919.0
2018-Apr-23 16:00N 41°03' E 002°15'918.8
2018-Apr-23 15:30N 40°54' E 002°16'1019.8
2018-Apr-23 15:00N 40°44' E 002°16'1019.9
2018-Apr-23 14:29N 40°34' E 002°15'6519.0
2018-Apr-23 11:05N 39°29' E 002°24'118.9
2018-Apr-23 11:00N 39°29' E 002°25'815.1
2018-Apr-23 10:30N 39°29' E 002°35'5 8.5
2018-Apr-23 09:58N 39°33' E 002°38'0 0.0
2018-Apr-23 09:28N 39°33' E 002°38'0 0.0
2018-Apr-23 08:58N 39°33' E 002°38'0 0.0
2018-Apr-23 08:28N 39°33' E 002°38'0 0.0
2018-Apr-23 07:57N 39°33' E 002°38'0 0.0
2018-Apr-23 07:30N 39°33' E 002°38'0 0.0
2018-Apr-23 07:00N 39°33' E 002°38'0 0.0
2018-Apr-23 06:30N 39°33' E 002°38'0 0.0
2018-Apr-23 06:00N 39°33' E 002°38'0 0.0
2018-Apr-23 05:26N 39°33' E 002°38'0 0.0
2018-Apr-23 04:59N 39°33' E 002°38'0 0.6
2018-Apr-23 04:30N 39°33' E 002°38'612.3
2018-Apr-23 03:59N 39°28' E 002°34'9216.6
2018-Apr-22 22:28N 40°58' E 002°14'919.3
2018-Apr-22 22:00N 41°07' E 002°13'918.8
2018-Apr-22 21:30N 41°17' E 002°13'6 0.4
2018-Apr-22 05:12N 41°22' E 002°11'1 7.3
2018-Apr-22 05:00N 41°21' E 002°12'815.4
2018-Apr-22 04:30N 41°13' E 002°14'1318.6
2018-Apr-22 03:48N 41°00' E 002°15'9218.2
2018-Apr-21 22:44N 39°28' E 002°25'415.4
2018-Apr-21 22:30N 39°27' E 002°29'713.6
2018-Apr-21 22:01N 39°30' E 002°36'3 5.6
2018-Apr-21 21:29N 39°33' E 002°38'0 0.0
2018-Apr-21 20:59N 39°33' E 002°38'0 0.0
2018-Apr-21 20:29N 39°33' E 002°38'0 0.0
2018-Apr-21 19:58N 39°33' E 002°38'0 0.0
2018-Apr-21 19:28N 39°33' E 002°38'0 0.0
2018-Apr-21 18:58N 39°33' E 002°38'0 0.0
2018-Apr-21 18:28N 39°33' E 002°38'0 0.0
2018-Apr-21 18:01N 39°33' E 002°38'0 0.0
2018-Apr-21 17:30N 39°33' E 002°38'0 0.0
2018-Apr-21 17:00N 39°33' E 002°38'0 0.0
2018-Apr-21 16:30N 39°33' E 002°38'0 0.0
2018-Apr-21 16:00N 39°33' E 002°38'0 0.0
2018-Apr-21 15:29N 39°33' E 002°38'0 0.0
2018-Apr-21 14:56N 39°33' E 002°38'0 0.0
2018-Apr-21 14:29N 39°33' E 002°38'0 0.0
2018-Apr-21 13:59N 39°33' E 002°38'0 0.0
2018-Apr-21 13:29N 39°33' E 002°38'0 0.0
2018-Apr-21 12:58N 39°33' E 002°38'0 0.0
2018-Apr-21 12:28N 39°33' E 002°38'0 0.0
2018-Apr-21 11:58N 39°33' E 002°38'0 0.0
2018-Apr-21 11:28N 39°33' E 002°38'0 0.0
2018-Apr-21 11:00N 39°33' E 002°38'0 0.0
2018-Apr-21 10:30N 39°33' E 002°38'0 0.0
2018-Apr-21 10:00N 39°33' E 002°38'0 0.0
2018-Apr-21 09:30N 39°33' E 002°38'0 0.0
2018-Apr-21 09:00N 39°33' E 002°38'0 0.0
2018-Apr-21 08:29N 39°33' E 002°38'0 0.0
2018-Apr-21 07:59N 39°33' E 002°38'0 0.0
2018-Apr-21 07:29N 39°33' E 002°38'0 0.0
2018-Apr-21 06:59N 39°33' E 002°38'0 0.0
2018-Apr-21 06:29N 39°33' E 002°38'0 0.0
2018-Apr-21 05:58N 39°33' E 002°38'0 0.0
2018-Apr-21 05:28N 39°33' E 002°38'0 0.0
2018-Apr-21 04:58N 39°33' E 002°38'0 0.5
2018-Apr-21 04:30N 39°33' E 002°38'713.6
2018-Apr-21 04:00N 39°27' E 002°33'10017.4
2018-Apr-20 22:17N 41°06' E 002°13'518.9
2018-Apr-20 22:00N 41°11' E 002°13'1019.0
2018-Apr-20 21:30N 41°20' E 002°12'2 0.4
2018-Apr-20 17:15N 41°22' E 002°11'2 6.6
2018-Apr-20 17:00N 41°21' E 002°12'612.9
2018-Apr-20 16:30N 41°14' E 002°14'918.1
2018-Apr-20 15:59N 41°05' E 002°15'9719.2
2018-Apr-20 10:57N 39°28' E 002°25'715.4
2018-Apr-20 10:30N 39°28' E 002°34'610.5
2018-Apr-20 09:58N 39°33' E 002°38'0 0.0
2018-Apr-20 09:28N 39°33' E 002°38'0 0.0
2018-Apr-20 08:58N 39°33' E 002°38'0 0.0
2018-Apr-20 08:28N 39°33' E 002°38'0 0.0
2018-Apr-20 07:58N 39°33' E 002°38'0 0.0
2018-Apr-20 07:30N 39°33' E 002°38'0 0.0
2018-Apr-20 07:00N 39°33' E 002°38'0 0.0
2018-Apr-20 06:27N 39°33' E 002°38'0 0.0
2018-Apr-20 06:00N 39°33' E 002°38'0 0.0
2018-Apr-20 05:30N 39°33' E 002°38'0 0.0
2018-Apr-20 04:59N 39°33' E 002°38'0 0.8
2018-Apr-20 04:30N 39°33' E 002°38'814.6
2018-Apr-20 03:58N 39°26' E 002°33'815.8
2018-Apr-20 03:30N 39°28' E 002°23'9918.5
2018-Apr-19 22:10N 41°06' E 002°14'319.2
2018-Apr-19 22:00N 41°09' E 002°14'918.9
2018-Apr-19 21:30N 41°19' E 002°13'4 0.9
2018-Apr-19 17:08N 41°22' E 002°11'1 8.2
2018-Apr-19 17:00N 41°21' E 002°11'815.6
2018-Apr-19 16:31N 41°13' E 002°14'1018.6
2018-Apr-19 15:59N 41°04' E 002°14'919.0
2018-Apr-19 15:30N 40°55' E 002°15'8719.1
2018-Apr-19 10:58N 39°28' E 002°25'715.5
2018-Apr-19 10:30N 39°29' E 002°35'5 9.7
2018-Apr-19 10:00N 39°33' E 002°38'0 0.0
2018-Apr-19 09:28N 39°33' E 002°38'0 0.0
2018-Apr-19 08:58N 39°33' E 002°38'0 0.0
2018-Apr-19 08:31N 39°33' E 002°38'0 0.0
2018-Apr-19 08:00N 39°33' E 002°38'0 0.0
2018-Apr-19 07:30N 39°33' E 002°38'0 0.0
2018-Apr-19 07:00N 39°33' E 002°38'0 0.0
2018-Apr-19 06:30N 39°33' E 002°38'0 0.0
2018-Apr-19 05:59N 39°33' E 002°38'0 0.0
2018-Apr-19 05:29N 39°33' E 002°38'0 0.0
2018-Apr-19 04:59N 39°33' E 002°38'0 0.6
2018-Apr-19 04:30N 39°33' E 002°38'813.9
2018-Apr-19 03:56N 39°26' E 002°32'817.2
2018-Apr-19 03:29N 39°29' E 002°23'9418.6
2018-Apr-18 22:26N 41°02' E 002°13'819.0
2018-Apr-18 22:01N 41°10' E 002°13'1019.3
2018-Apr-18 21:31N 41°20' E 002°12'2 0.6
2018-Apr-18 17:17N 41°22' E 002°11'2 7.4
2018-Apr-18 17:01N 41°20' E 002°12'714.2
2018-Apr-18 16:31N 41°14' E 002°14'1020.0
2018-Apr-18 16:01N 41°04' E 002°14'9519.9
2018-Apr-18 11:15N 39°29' E 002°23'518.3
2018-Apr-18 10:59N 39°26' E 002°28'918.8
2018-Apr-18 10:30N 39°32' E 002°38'1 2.8
2018-Apr-18 10:00N 39°33' E 002°38'0 0.0
2018-Apr-18 09:30N 39°33' E 002°38'0 0.0
2018-Apr-18 09:00N 39°33' E 002°38'0 0.0
2018-Apr-18 08:30N 39°33' E 002°38'0 0.0
2018-Apr-18 08:00N 39°33' E 002°38'0 0.0
2018-Apr-18 07:29N 39°33' E 002°38'0 0.0
2018-Apr-18 06:59N 39°33' E 002°38'0 0.0
2018-Apr-18 06:29N 39°33' E 002°38'0 0.0
2018-Apr-18 05:59N 39°33' E 002°38'0 0.0
2018-Apr-18 05:28N 39°33' E 002°38'0 0.0
2018-Apr-18 04:53N 39°33' E 002°38'0 1.2
2018-Apr-18 04:30N 39°33' E 002°38'714.0
2018-Apr-18 04:00N 39°27' E 002°33'8917.0
2018-Apr-17 22:47N 40°55' E 002°14'718.6
2018-Apr-17 22:24N 41°02' E 002°14'719.1
2018-Apr-17 22:00N 41°10' E 002°14'1019.9
2018-Apr-17 21:31N 41°20' E 002°13'11110.6
2018-Apr-17 11:05N 39°29' E 002°24'118.7
2018-Apr-17 11:00N 39°28' E 002°25'815.4
2018-Apr-17 10:30N 39°29' E 002°35'4 8.6
2018-Apr-17 10:00N 39°33' E 002°38'0 0.0
2018-Apr-17 09:30N 39°33' E 002°38'0 0.0
2018-Apr-17 09:00N 39°33' E 002°38'0 0.0
2018-Apr-17 08:29N 39°33' E 002°38'0 0.0
2018-Apr-17 07:59N 39°33' E 002°38'0 0.0
2018-Apr-17 07:29N 39°33' E 002°38'0 0.0
2018-Apr-17 06:59N 39°33' E 002°38'0 0.0
2018-Apr-17 06:29N 39°33' E 002°38'0 0.0
2018-Apr-17 05:58N 39°33' E 002°38'0 0.0
2018-Apr-17 05:28N 39°33' E 002°38'0 0.0
2018-Apr-17 04:58N 39°33' E 002°38'1 1.9
2018-Apr-17 04:30N 39°33' E 002°39'815.1
2018-Apr-17 04:00N 39°27' E 002°33'10117.4
2018-Apr-16 22:13N 41°06' E 002°13'419.3
2018-Apr-16 22:00N 41°11' E 002°13'1019.7
2018-Apr-16 21:30N 41°20' E 002°12'2 0.5
2018-Apr-16 17:15N 41°22' E 002°11'2 8.6
2018-Apr-16 17:00N 41°20' E 002°13'1019.2
2018-Apr-16 16:30N 41°11' E 002°14'10318.8
2018-Apr-16 11:03N 39°29' E 002°25'117.7
2018-Apr-16 11:00N 39°28' E 002°26'714.4
2018-Apr-16 10:30N 39°29' E 002°35'4 8.9
2018-Apr-16 10:00N 39°33' E 002°38'0 0.0
2018-Apr-16 09:30N 39°33' E 002°38'0 0.0
2018-Apr-16 09:00N 39°33' E 002°38'0 0.0
2018-Apr-16 08:30N 39°33' E 002°38'0 0.0
2018-Apr-16 07:59N 39°33' E 002°38'0 0.0
2018-Apr-16 07:29N 39°33' E 002°38'0 0.0
2018-Apr-16 06:59N 39°33' E 002°38'0 0.0
2018-Apr-16 06:29N 39°33' E 002°38'0 0.0
2018-Apr-16 05:59N 39°33' E 002°38'0 0.0
2018-Apr-16 05:28N 39°33' E 002°38'0 0.0
2018-Apr-16 04:58N 39°33' E 002°38'0 0.7
2018-Apr-16 04:29N 39°33' E 002°38'714.8
2018-Apr-16 04:00N 39°27' E 002°34'10017.1
2018-Apr-15 22:10N 41°06' E 002°13'318.8
2018-Apr-15 22:00N 41°09' E 002°13'919.1
2018-Apr-15 21:30N 41°18' E 002°13'109 4.8
2018-Apr-14 22:54N 39°29' E 002°23'717.1
2018-Apr-14 22:30N 39°26' E 002°31'713.7
2018-Apr-14 22:00N 39°31' E 002°37'2 3.5
2018-Apr-14 21:30N 39°33' E 002°38'0 0.0
2018-Apr-14 21:00N 39°33' E 002°38'0 0.0
2018-Apr-14 20:30N 39°33' E 002°38'0 0.0
2018-Apr-14 19:59N 39°33' E 002°38'0 0.0
2018-Apr-14 19:29N 39°33' E 002°38'0 0.0
2018-Apr-14 18:59N 39°33' E 002°38'0 0.0
2018-Apr-14 18:29N 39°33' E 002°38'0 0.0
2018-Apr-14 17:58N 39°33' E 002°38'0 0.0
2018-Apr-14 17:28N 39°33' E 002°38'0 0.0
2018-Apr-14 16:58N 39°33' E 002°38'0 0.0
2018-Apr-14 16:28N 39°33' E 002°38'0 0.0
2018-Apr-14 15:58N 39°33' E 002°38'0 0.0
2018-Apr-14 15:30N 39°33' E 002°38'0 0.0
2018-Apr-14 15:00N 39°33' E 002°38'0 0.0
2018-Apr-14 14:30N 39°33' E 002°38'0 0.0
2018-Apr-14 14:00N 39°33' E 002°38'0 0.0
2018-Apr-14 13:30N 39°33' E 002°38'0 0.0
2018-Apr-14 12:59N 39°33' E 002°38'0 0.0
2018-Apr-14 12:29N 39°33' E 002°38'0 0.0
2018-Apr-14 11:59N 39°33' E 002°38'0 0.0
2018-Apr-14 11:29N 39°33' E 002°38'0 0.0
2018-Apr-14 10:58N 39°33' E 002°38'0 0.0
2018-Apr-14 10:28N 39°33' E 002°38'0 0.0
2018-Apr-14 09:58N 39°33' E 002°38'0 0.0
2018-Apr-14 09:28N 39°33' E 002°38'0 0.0
2018-Apr-14 08:58N 39°33' E 002°38'0 0.0
2018-Apr-14 08:30N 39°33' E 002°38'0 0.0
2018-Apr-14 08:00N 39°33' E 002°38'0 0.0
2018-Apr-14 07:30N 39°33' E 002°38'0 0.1
2018-Apr-14 07:00N 39°33' E 002°38'0 0.0
2018-Apr-14 06:30N 39°33' E 002°38'0 0.1
2018-Apr-14 05:59N 39°33' E 002°38'0 0.0
2018-Apr-14 05:28N 39°33' E 002°38'0 0.0
2018-Apr-14 04:59N 39°33' E 002°38'1 1.1
2018-Apr-14 04:30N 39°33' E 002°38'816.0
2018-Apr-14 04:00N 39°27' E 002°32'10016.9
2018-Apr-13 22:06N 41°06' E 002°13'218.8
2018-Apr-13 22:00N 41°08' E 002°13'918.9
2018-Apr-13 21:31N 41°17' E 002°13'  

Dump ship's entire track history